Time;durP1;ratioP1;P1;durP2;ratioP2;P2;SDS_P1;SDS_P2;PMS_P1;PMS_P2;Temp;Humidity;BMP_temperature;BMP_pressure;BME280_temperature;BME280_humidity;BME280_pressure;Samples;Min_cycle;Max_cycle;Signal;HPM_P1;HPM_P2
2022/10/30 00:00:34;;;;;;;5.63;4.97;;;;;;;-144.22;100.00;60274.75;6234374;28;20226;-63
2022/10/30 00:03:36;;;;;;;5.53;5.03;;;;;;;-144.22;100.00;60274.75;6232767;28;20692;-63
2022/10/30 00:06:38;;;;;;;5.13;4.73;;;;;;;-144.22;100.00;60274.75;6231667;28;20701;-63
2022/10/30 00:09:40;;;;;;;4.90;4.50;;;;;;;-144.22;100.00;60274.75;6232747;28;20598;-63
2022/10/30 00:12:43;;;;;;;3.73;3.43;;;;;;;-144.22;100.00;60274.75;6231333;28;20321;-63
2022/10/30 00:15:50;;;;;;;5.13;4.60;;;;;;;-144.22;100.00;60274.75;6233515;28;20320;-62
2022/10/30 00:18:53;;;;;;;4.57;3.97;;;;;;;-144.22;100.00;60274.75;6233806;28;20231;-62
2022/10/30 00:21:56;;;;;;;4.70;4.30;;;;;;;-144.22;100.00;60274.75;6232977;28;20236;-62
2022/10/30 00:24:57;;;;;;;3.67;3.37;;;;;;;-144.22;100.00;60274.75;6216386;28;20237;-62
2022/10/30 00:27:59;;;;;;;5.60;4.60;;;;;;;-144.22;100.00;60274.75;6242939;28;20234;-63
2022/10/30 00:31:04;;;;;;;4.10;3.80;;;;;;;-144.22;100.00;60274.75;6232910;28;20411;-62
2022/10/30 00:34:07;;;;;;;4.20;3.80;;;;;;;-144.22;100.00;60274.75;6214484;28;20226;-62
2022/10/30 00:37:10;;;;;;;4.60;3.77;;;;;;;-144.22;100.00;60274.75;6231504;28;20745;-62
2022/10/30 00:40:15;;;;;;;5.73;5.10;;;;;;;-144.22;100.00;60274.75;6232520;28;20536;-63
2022/10/30 00:43:27;;;;;;;4.60;3.70;;;;;;;-144.22;100.00;60274.75;6232140;28;20266;-62
2022/10/30 00:46:34;;;;;;;4.43;4.03;;;;;;;-144.22;100.00;60274.75;6232247;28;20235;-63
2022/10/30 00:49:44;;;;;;;3.97;3.53;;;;;;;-144.22;100.00;60274.75;6232550;28;20245;-63
2022/10/30 00:52:55;;;;;;;6.27;4.77;;;;;;;-144.22;100.00;60274.75;6231464;28;20325;-64
2022/10/30 00:56:01;;;;;;;6.90;4.97;;;;;;;-144.22;100.00;60274.75;6230330;28;20230;-63
2022/10/30 00:59:08;;;;;;;7.27;4.90;;;;;;;-144.22;100.00;60274.75;6232425;28;20274;-62
2022/10/30 01:02:10;;;;;;;6.80;4.60;;;;;;;-144.22;100.00;60274.75;6230442;28;20244;-63
2022/10/30 01:05:16;;;;;;;6.17;4.17;;;;;;;-144.22;100.00;60274.75;6231972;28;20270;-63
2022/10/30 01:08:18;;;;;;;5.57;4.83;;;;;;;-144.22;100.00;60274.75;6233448;28;20251;-62
2022/10/30 01:11:21;;;;;;;5.10;4.23;;;;;;;-144.22;100.00;60274.75;6235458;28;20230;-63
2022/10/30 01:14:23;;;;;;;7.60;5.00;;;;;;;-144.22;100.00;60274.75;6237405;28;20249;-62
2022/10/30 01:17:51;;;;;;;5.27;4.77;;;;;;;-144.22;100.00;60274.75;6237658;28;20347;-62
2022/10/30 01:21:14;;;;;;;4.77;4.27;;;;;;;-144.22;100.00;60274.75;6229970;28;20235;-63
2022/10/30 01:24:33;;;;;;;4.60;4.20;;;;;;;-144.22;100.00;60274.75;6221848;28;20235;-63
2022/10/30 01:27:45;;;;;;;5.20;4.13;;;;;;;-144.22;100.00;60274.75;6230774;28;20699;-62
2022/10/30 01:31:29;;;;;;;4.50;4.20;;;;;;;-144.22;100.00;60274.75;6225310;28;20234;-62
2022/10/30 01:34:49;;;;;;;8.33;5.27;;;;;;;-144.22;100.00;60274.75;6229838;28;20382;-62
2022/10/30 01:38:06;;;;;;;5.40;4.90;;;;;;;-144.22;100.00;60274.75;6230235;28;20692;-64
2022/10/30 01:41:09;;;;;;;4.90;4.50;;;;;;;-144.22;100.00;60274.75;6230452;28;20319;-62
2022/10/30 01:44:27;;;;;;;5.10;4.60;;;;;;;-144.22;100.00;60274.75;6205318;28;20231;-63
2022/10/30 01:47:57;;;;;;;4.57;4.17;;;;;;;-144.22;100.00;60274.75;6212525;28;20721;-62
2022/10/30 01:51:26;;;;;;;4.80;4.30;;;;;;;-144.22;100.00;60274.75;6221478;28;20455;-63
2022/10/30 01:54:49;;;;;;;6.23;4.33;;;;;;;-144.22;100.00;60274.75;6213625;28;20314;-62
2022/10/30 01:58:18;;;;;;;5.50;3.90;;;;;;;-144.22;100.00;60274.75;6228802;28;20664;-62
2022/10/30 02:01:27;;;;;;;4.70;4.27;;;;;;;-144.22;100.00;60274.75;6224796;28;20224;-62
2022/10/30 02:04:30;;;;;;;5.67;5.17;;;;;;;-144.22;100.00;60274.75;6210169;28;20232;-63
2022/10/30 02:07:33;;;;;;;6.23;4.50;;;;;;;-144.22;100.00;60274.75;6222812;28;20588;-62
2022/10/30 02:10:37;;;;;;;5.33;4.20;;;;;;;-144.22;100.00;60274.75;6228363;28;20239;-63
2022/10/30 02:13:39;;;;;;;4.77;4.37;;;;;;;-144.22;100.00;60274.75;6230223;28;20232;-63
2022/10/30 02:16:47;;;;;;;4.30;3.90;;;;;;;-144.22;100.00;60274.75;6228819;28;20262;-63
2022/10/30 02:19:52;;;;;;;3.80;3.50;;;;;;;-144.22;100.00;60274.75;6230891;28;20518;-62
2022/10/30 02:22:54;;;;;;;5.17;3.43;;;;;;;-144.22;100.00;60274.75;6228490;28;20236;-63
2022/10/30 02:26:05;;;;;;;3.50;3.20;;;;;;;-144.22;100.00;60274.75;6228995;28;20223;-63
2022/10/30 02:29:07;;;;;;;4.03;3.60;;;;;;;-144.22;100.00;60274.75;6227788;28;20789;-62
2022/10/30 02:32:09;;;;;;;3.70;3.07;;;;;;;-144.22;100.00;60274.75;6229065;28;20321;-62
2022/10/30 02:35:11;;;;;;;3.40;3.10;;;;;;;-144.22;100.00;60274.75;6229210;28;20224;-62
2022/10/30 02:38:13;;;;;;;2.70;2.50;;;;;;;-144.22;100.00;60274.75;6228414;28;20765;-63
2022/10/30 02:41:16;;;;;;;3.17;2.93;;;;;;;-144.22;100.00;60274.75;6228973;28;20231;-63
2022/10/30 02:44:18;;;;;;;4.30;2.83;;;;;;;-144.22;100.00;60274.75;6195257;28;20262;-62
2022/10/30 02:47:21;;;;;;;2.77;2.57;;;;;;;-144.22;100.00;60274.75;6229762;28;20263;-65
2022/10/30 02:50:23;;;;;;;3.90;2.70;;;;;;;-144.22;100.00;60274.75;6221258;28;20319;-63
2022/10/30 02:53:26;;;;;;;3.40;2.50;;;;;;;-144.22;100.00;60274.75;6215786;28;20239;-62
2022/10/30 02:56:28;;;;;;;2.43;2.23;;;;;;;-144.22;100.00;60274.75;6219926;28;20224;-62
2022/10/30 02:59:30;;;;;;;4.80;2.70;;;;;;;-144.22;100.00;60274.75;6227828;28;20236;-64
2022/10/30 03:02:32;;;;;;;3.90;2.83;;;;;;;-144.22;100.00;60274.75;6228269;28;20571;-62
2022/10/30 03:05:34;;;;;;;4.10;2.63;;;;;;;-144.22;100.00;60274.75;6212599;28;20231;-62
2022/10/30 03:08:37;;;;;;;2.97;2.37;;;;;;;-144.22;100.00;60274.75;6230063;28;20231;-63
2022/10/30 03:11:39;;;;;;;2.30;2.20;;;;;;;-144.22;100.00;60274.75;6230225;28;20257;-62
2022/10/30 03:14:41;;;;;;;2.87;2.30;;;;;;;-144.22;100.00;60274.75;6228943;28;20322;-62
2022/10/30 03:17:44;;;;;;;2.33;2.13;;;;;;;-144.22;100.00;60274.75;6236016;28;20518;-62
2022/10/30 03:20:46;;;;;;;4.93;2.40;;;;;;;-144.22;100.00;60274.75;6229372;28;20227;-63
2022/10/30 03:23:51;;;;;;;2.50;2.17;;;;;;;-144.22;100.00;60274.75;6228090;28;20238;-62
2022/10/30 03:26:54;;;;;;;3.03;1.90;;;;;;;-144.22;100.00;60274.75;6212334;28;20579;-62
2022/10/30 03:29:56;;;;;;;2.00;1.90;;;;;;;-144.22;100.00;60274.75;6229259;28;20307;-62
2022/10/30 03:32:58;;;;;;;2.60;2.37;;;;;;;-144.22;100.00;60274.75;6228203;28;20770;-62
2022/10/30 03:36:02;;;;;;;2.77;2.20;;;;;;;-144.22;100.00;60274.75;6228524;28;20250;-65
2022/10/30 03:39:04;;;;;;;2.17;1.97;;;;;;;-144.22;100.00;60274.75;6229519;28;20238;-62
2022/10/30 03:42:07;;;;;;;1.80;1.70;;;;;;;-144.22;100.00;60274.75;6228002;28;20501;-62
2022/10/30 03:45:09;;;;;;;2.27;1.97;;;;;;;-144.22;100.00;60274.75;6229301;28;20220;-63
2022/10/30 03:48:11;;;;;;;3.07;2.00;;;;;;;-144.22;100.00;60274.75;6220716;28;20217;-62
2022/10/30 03:51:13;;;;;;;2.30;2.10;;;;;;;-144.22;100.00;60274.75;6214641;28;20246;-62
2022/10/30 03:54:15;;;;;;;4.23;2.60;;;;;;;-144.22;100.00;60274.75;6227963;28;20826;-62
2022/10/30 03:57:18;;;;;;;1.90;1.70;;;;;;;-144.22;100.00;60274.75;6226939;28;20219;-62
2022/10/30 04:00:37;;;;;;;2.30;2.10;;;;;;;-144.22;100.00;60274.75;6227571;28;20237;-62
2022/10/30 04:03:39;;;;;;;3.40;2.00;;;;;;;-144.22;100.00;60274.75;6226271;28;20225;-63
2022/10/30 04:06:42;;;;;;;2.47;1.80;;;;;;;-144.22;100.00;60274.75;6211699;28;20239;-62
2022/10/30 04:09:45;;;;;;;2.40;1.97;;;;;;;-144.22;100.00;60274.75;6230238;28;20622;-62
2022/10/30 04:12:47;;;;;;;2.33;2.13;;;;;;;-144.22;100.00;60274.75;6224894;28;20597;-62
2022/10/30 04:15:49;;;;;;;2.67;2.33;;;;;;;-144.22;100.00;60274.75;6217442;28;20246;-62
2022/10/30 04:18:59;;;;;;;4.60;2.20;;;;;;;-144.22;100.00;60274.75;6222250;28;20629;-62
2022/10/30 04:22:01;;;;;;;3.47;1.93;;;;;;;-144.22;100.00;60274.75;6216306;28;20242;-62
2022/10/30 04:25:04;;;;;;;6.67;2.47;;;;;;;-144.22;100.00;60274.75;6231986;28;20322;-62
2022/10/30 04:28:07;;;;;;;3.10;2.23;;;;;;;-144.22;100.00;60274.75;6233529;28;20314;-63
2022/10/30 04:31:09;;;;;;;2.77;2.20;;;;;;;-144.22;100.00;60274.75;6232052;28;20326;-63
2022/10/30 04:34:11;;;;;;;2.83;1.90;;;;;;;-144.22;100.00;60274.75;6233055;28;20249;-62
2022/10/30 04:37:13;;;;;;;2.73;2.30;;;;;;;-144.22;100.00;60274.75;6220233;28;20238;-62
2022/10/30 04:40:17;;;;;;;5.17;2.60;;;;;;;-144.22;100.00;60274.75;6222025;28;20241;-62
2022/10/30 04:43:26;;;;;;;2.73;2.43;;;;;;;-144.22;100.00;60274.75;6230611;28;20254;-62
2022/10/30 04:46:28;;;;;;;2.80;1.90;;;;;;;-144.22;100.00;60274.75;6230790;28;20344;-62
2022/10/30 04:49:36;;;;;;;4.77;2.23;;;;;;;-144.22;100.00;60274.75;6230558;28;20241;-62
2022/10/30 04:52:39;;;;;;;2.67;2.33;;;;;;;-144.22;100.00;60274.75;6256394;28;20233;-62
2022/10/30 04:55:43;;;;;;;2.63;2.27;;;;;;;-144.22;100.00;60274.75;6238387;28;20222;-62
2022/10/30 04:58:46;;;;;;;3.53;2.63;;;;;;;-144.22;100.00;60274.75;6255551;28;20253;-62
2022/10/30 05:01:48;;;;;;;2.20;2.00;;;;;;;-144.22;100.00;60274.75;6256314;28;20583;-64
2022/10/30 05:04:50;;;;;;;5.70;2.10;;;;;;;-144.22;100.00;60274.75;6239160;28;20253;-62
2022/10/30 05:07:52;;;;;;;2.90;2.10;;;;;;;-144.22;100.00;60274.75;6240163;28;20336;-62
2022/10/30 05:10:55;;;;;;;3.73;2.17;;;;;;;-144.22;100.00;60274.75;6239124;28;20622;-62
2022/10/30 05:13:57;;;;;;;3.17;2.27;;;;;;;-144.22;100.00;60274.75;6238327;28;20719;-62
2022/10/30 05:17:00;;;;;;;3.57;2.30;;;;;;;-144.22;100.00;60274.75;6239981;28;20315;-62
2022/10/30 05:20:02;;;;;;;4.97;2.30;;;;;;;-144.22;100.00;60274.75;6238437;28;20230;-62
2022/10/30 05:23:05;;;;;;;4.03;2.40;;;;;;;-144.22;100.00;60274.75;6236932;28;20230;-62
2022/10/30 05:26:07;;;;;;;3.20;2.30;;;;;;;-144.22;100.00;60274.75;6215264;28;20243;-63
2022/10/30 05:29:11;;;;;;;5.10;2.90;;;;;;;-144.22;100.00;60274.75;6254994;28;20226;-63
2022/10/30 05:32:13;;;;;;;2.43;2.17;;;;;;;-144.22;100.00;60274.75;6239505;28;20232;-63
2022/10/30 05:35:22;;;;;;;3.77;2.30;;;;;;;-144.22;100.00;60274.75;6230913;28;20236;-62
2022/10/30 05:38:25;;;;;;;3.73;2.30;;;;;;;-144.22;100.00;60274.75;6220909;28;20238;-63
2022/10/30 05:41:28;;;;;;;4.20;2.50;;;;;;;-144.22;100.00;60274.75;6238260;28;20237;-62
2022/10/30 05:44:30;;;;;;;3.27;2.20;;;;;;;-144.22;100.00;60274.75;6222684;28;20658;-62
2022/10/30 05:48:01;;;;;;;4.70;2.73;;;;;;;-144.22;100.00;60274.75;6225375;28;20229;-62
2022/10/30 05:51:08;;;;;;;5.00;2.17;;;;;;;-144.22;100.00;60274.75;6237928;28;20314;-63
2022/10/30 05:54:13;;;;;;;2.50;2.13;;;;;;;-144.22;100.00;60274.75;6238340;28;20202;-62
2022/10/30 05:57:32;;;;;;;5.17;2.40;;;;;;;-144.22;100.00;60274.75;6235472;28;20235;-62
2022/10/30 06:00:35;;;;;;;4.13;2.13;;;;;;;-144.22;100.00;60274.75;6254900;28;20593;-61
2022/10/30 06:03:37;;;;;;;4.87;2.30;;;;;;;-144.22;100.00;60274.75;6237144;28;20312;-62
2022/10/30 06:06:40;;;;;;;3.03;2.10;;;;;;;-144.22;100.00;60274.75;6237269;28;20229;-62
2022/10/30 06:09:43;;;;;;;5.27;2.67;;;;;;;-144.22;100.00;60274.75;6254618;28;20351;-61
2022/10/30 06:13:12;;;;;;;5.00;2.87;;;;;;;-144.22;100.00;60274.75;6251142;28;20237;-62
2022/10/30 06:16:27;;;;;;;3.17;1.90;;;;;;;-144.22;100.00;60274.75;6222695;28;20232;-62
2022/10/30 06:19:48;;;;;;;2.73;2.30;;;;;;;-144.22;100.00;60274.75;6254607;28;20709;-62
2022/10/30 06:23:11;;;;;;;5.10;2.27;;;;;;;-144.22;100.00;60274.75;6254741;28;20633;-62
2022/10/30 06:26:37;;;;;;;3.80;2.40;;;;;;;-144.22;100.00;60274.75;6253190;28;20727;-62
2022/10/30 06:29:43;;;;;;;6.93;2.83;;;;;;;-144.22;100.00;60274.75;6236049;28;20764;-62
2022/10/30 06:32:49;;;;;;;3.73;2.50;;;;;;;-144.22;100.00;60274.75;6235910;28;20334;-63
2022/10/30 06:35:53;;;;;;;5.03;3.10;;;;;;;-144.22;100.00;60274.75;6254029;28;20261;-63
2022/10/30 06:38:56;;;;;;;3.90;3.00;;;;;;;-144.22;100.00;60274.75;6253647;28;20263;-62
2022/10/30 06:42:03;;;;;;;4.80;3.00;;;;;;;-144.22;100.00;60274.75;6253500;28;20682;-63
2022/10/30 06:45:37;;;;;;;3.73;2.60;;;;;;;-144.22;100.00;60274.75;6220184;28;20254;-62
2022/10/30 06:48:41;;;;;;;2.93;2.63;;;;;;;-144.22;100.00;60274.75;6228077;28;20245;-63
2022/10/30 06:51:43;;;;;;;6.47;3.40;;;;;;;-144.22;100.00;60274.75;6236064;28;20254;-62
2022/10/30 06:54:45;;;;;;;5.73;3.43;;;;;;;-144.22;100.00;60274.75;6227596;28;20238;-62
2022/10/30 06:58:08;;;;;;;4.47;3.43;;;;;;;-144.22;100.00;60274.75;6231699;28;20261;-62
2022/10/30 07:01:29;;;;;;;4.77;3.00;;;;;;;-144.22;100.00;60274.75;6238175;28;20690;-62
2022/10/30 07:04:36;;;;;;;6.20;3.53;;;;;;;-144.22;100.00;60274.75;6227144;28;20239;-62
2022/10/30 07:07:38;;;;;;;4.60;3.40;;;;;;;-144.22;100.00;60274.75;6236398;28;20312;-62
2022/10/30 07:10:42;;;;;;;6.43;3.30;;;;;;;-144.22;100.00;60274.75;6236146;28;20510;-63
2022/10/30 07:14:11;;;;;;;7.93;3.07;;;;;;;-144.22;100.00;60274.75;6235894;28;20234;-62
2022/10/30 07:17:23;;;;;;;3.60;2.63;;;;;;;-144.22;100.00;60274.75;6251037;28;20234;-62
2022/10/30 07:20:33;;;;;;;6.10;3.40;;;;;;;-144.22;100.00;60274.75;6210917;28;20279;-62
2022/10/30 07:23:36;;;;;;;4.07;2.90;;;;;;;-144.22;100.00;60274.75;6225897;28;20231;-62
2022/10/30 07:27:01;;;;;;;5.23;3.60;;;;;;;-144.22;100.00;60274.75;6242468;28;20262;-63
2022/10/30 07:30:14;;;;;;;7.30;3.97;;;;;;;-144.22;100.00;60274.75;6238172;28;20223;-62
2022/10/30 07:33:35;;;;;;;7.23;3.77;;;;;;;-144.22;100.00;60274.75;6253342;28;20230;-62
2022/10/30 07:36:48;;;;;;;4.80;3.77;;;;;;;-144.22;100.00;60274.75;6237470;28;20242;-62
2022/10/30 07:39:59;;;;;;;3.63;3.27;;;;;;;-144.22;100.00;60274.75;6227951;28;20228;-62
2022/10/30 07:43:37;;;;;;;2.93;2.63;;;;;;;-144.22;100.00;60274.75;6156408;28;20230;-62
2022/10/30 07:47:12;;;;;;;3.33;2.90;;;;;;;-144.22;100.00;60274.75;6208298;28;20258;-62
2022/10/30 07:50:30;;;;;;;4.00;2.83;;;;;;;-144.22;100.00;60274.75;6240626;28;20242;-62
2022/10/30 07:53:34;;;;;;;2.90;2.57;;;;;;;-144.22;100.00;60274.75;6258246;28;20224;-63
2022/10/30 07:56:38;;;;;;;3.97;2.40;;;;;;;-144.22;100.00;60274.75;6239902;28;20694;-62
2022/10/30 08:00:12;;;;;;;5.73;2.50;;;;;;;-144.22;100.00;60274.75;6183304;28;20276;-62
2022/10/30 08:03:14;;;;;;;2.63;2.33;;;;;;;-144.22;100.00;60274.75;6254344;28;20248;-63
2022/10/30 08:06:25;;;;;;;2.67;2.47;;;;;;;-144.22;100.00;60274.75;6240533;28;20580;-62
2022/10/30 08:09:30;;;;;;;2.60;2.40;;;;;;;-144.22;100.00;60274.75;6240000;28;20233;-62
2022/10/30 08:12:33;;;;;;;2.90;2.17;;;;;;;-144.22;100.00;60274.75;6239383;28;20229;-63
2022/10/30 08:15:38;;;;;;;2.30;2.10;;;;;;;-144.22;100.00;60274.75;6238891;28;20243;-63
2022/10/30 08:18:41;;;;;;;3.13;1.93;;;;;;;-144.22;100.00;60274.75;6251744;28;20586;-64
2022/10/30 08:21:44;;;;;;;2.53;2.30;;;;;;;-144.22;100.00;60274.75;6230326;28;20230;-64
2022/10/30 08:24:51;;;;;;;3.13;2.50;;;;;;;-144.22;100.00;60274.75;6229047;28;20240;-65
2022/10/30 08:27:59;;;;;;;1.93;1.83;;;;;;;-144.22;100.00;60274.75;6205985;28;20229;-64
2022/10/30 08:31:04;;;;;;;2.30;2.00;;;;;;;-144.22;100.00;60274.75;6244096;28;20589;-62
2022/10/30 08:34:42;;;;;;;2.50;2.30;;;;;;;-144.22;100.00;60274.75;6173520;28;20268;-62
2022/10/30 08:37:44;;;;;;;3.03;2.37;;;;;;;-144.22;100.00;60274.75;6243910;28;20230;-63
2022/10/30 08:40:46;;;;;;;1.70;1.60;;;;;;;-144.22;100.00;60274.75;6232892;28;20249;-62
2022/10/30 08:43:49;;;;;;;1.70;1.60;;;;;;;-144.22;100.00;60274.75;6223245;28;20219;-64
2022/10/30 08:46:52;;;;;;;5.30;2.10;;;;;;;-144.22;100.00;60274.75;6252008;28;20233;-66
2022/10/30 08:49:58;;;;;;;2.17;1.97;;;;;;;-144.22;100.00;60274.75;6247677;28;20356;-62
2022/10/30 08:53:08;;;;;;;3.13;2.20;;;;;;;-144.22;100.00;60274.75;6228348;28;20222;-63
2022/10/30 08:56:10;;;;;;;2.20;2.00;;;;;;;-144.22;100.00;60274.75;6230786;28;20623;-62
2022/10/30 08:59:26;;;;;;;2.63;2.43;;;;;;;-144.22;100.00;60274.75;6224847;28;20242;-65
2022/10/30 09:02:34;;;;;;;2.80;2.40;;;;;;;-144.22;100.00;60274.75;6238324;28;20343;-63
2022/10/30 09:06:11;;;;;;;3.50;2.00;;;;;;;-144.22;100.00;60274.75;6211601;28;20262;-66
2022/10/30 09:09:32;;;;;;;3.87;3.47;;;;;;;-144.22;100.00;60274.75;6244542;28;20243;-63
2022/10/30 09:12:36;;;;;;;4.80;3.87;;;;;;;-144.22;100.00;60274.75;6239228;28;20227;-63
2022/10/30 09:15:38;;;;;;;3.57;3.27;;;;;;;-144.22;100.00;60274.75;6222956;28;20226;-63
2022/10/30 09:18:41;;;;;;;4.27;3.87;;;;;;;-144.22;100.00;60274.75;6240002;28;20265;-63
2022/10/30 09:21:43;;;;;;;4.20;3.80;;;;;;;-144.22;100.00;60274.75;6223861;28;20218;-63
2022/10/30 09:24:45;;;;;;;4.40;4.00;;;;;;;-144.22;100.00;60274.75;6227304;28;20222;-63
2022/10/30 09:28:10;;;;;;;5.17;4.67;;;;;;;-144.22;100.00;60274.75;6243813;28;20253;-63
2022/10/30 09:31:38;;;;;;;5.60;5.10;;;;;;;-144.22;100.00;60274.75;6239612;28;20219;-63
2022/10/30 09:34:43;;;;;;;4.70;4.30;;;;;;;-144.22;100.00;60274.75;6227471;28;20318;-63
2022/10/30 09:37:58;;;;;;;5.67;4.37;;;;;;;-144.22;100.00;60274.75;6231631;28;20226;-63
2022/10/30 09:41:25;;;;;;;5.27;4.53;;;;;;;-144.22;100.00;60274.75;6226195;28;20289;-64
2022/10/30 09:44:30;;;;;;;4.90;4.40;;;;;;;-144.22;100.00;60274.75;6232192;28;20266;-62
2022/10/30 09:48:10;;;;;;;5.03;4.53;;;;;;;-144.22;100.00;60274.75;6240171;28;20223;-62
2022/10/30 09:51:30;;;;;;;5.97;5.37;;;;;;;-144.22;100.00;60274.75;6222426;28;20238;-65
2022/10/30 09:54:57;;;;;;;6.00;5.40;;;;;;;-144.22;100.00;60274.75;6236413;28;20301;-64
2022/10/30 09:58:15;;;;;;;7.43;5.63;;;;;;;-144.22;100.00;60274.75;6222201;28;20228;-64
2022/10/30 10:01:28;;;;;;;7.33;5.40;;;;;;;-144.22;100.00;60274.75;6222482;28;20596;-63
2022/10/30 10:04:43;;;;;;;5.07;4.60;;;;;;;-144.22;100.00;60274.75;6215194;28;20703;-63
2022/10/30 10:07:51;;;;;;;5.70;5.20;;;;;;;-144.22;100.00;60274.75;6237666;28;20235;-63
2022/10/30 10:11:19;;;;;;;6.20;5.60;;;;;;;-144.22;100.00;60274.75;6224237;28;20228;-64
2022/10/30 10:14:36;;;;;;;5.50;4.90;;;;;;;-144.22;100.00;60274.75;6216493;28;20236;-65
2022/10/30 10:17:42;;;;;;;6.00;5.40;;;;;;;-144.22;100.00;60274.75;6225733;28;20317;-63
2022/10/30 10:20:49;;;;;;;5.57;5.07;;;;;;;-144.22;100.00;60274.75;6212612;28;20229;-63
2022/10/30 10:24:01;;;;;;;5.40;4.90;;;;;;;-144.22;100.00;60274.75;6216278;28;20308;-64
2022/10/30 10:27:13;;;;;;;5.17;4.67;;;;;;;-144.22;100.00;60274.75;6219317;28;20318;-63
2022/10/30 10:30:23;;;;;;;5.50;5.00;;;;;;;-144.22;100.00;60274.75;6223238;28;20673;-63
2022/10/30 10:33:49;;;;;;;6.67;4.97;;;;;;;-144.22;100.00;60274.75;6218597;28;20228;-63
2022/10/30 10:37:25;;;;;;;5.20;4.70;;;;;;;-144.22;100.00;60274.75;6217519;28;20223;-65
2022/10/30 10:41:04;;;;;;;5.63;5.13;;;;;;;-144.22;100.00;60274.75;6220932;28;20240;-64
2022/10/30 10:44:30;;;;;;;7.33;6.47;;;;;;;-144.22;100.00;60274.75;6202840;28;20607;-64
2022/10/30 10:47:55;;;;;;;5.60;4.97;;;;;;;-144.22;100.00;60274.75;6219173;28;20317;-66
2022/10/30 10:51:05;;;;;;;6.97;6.27;;;;;;;-144.22;100.00;60274.75;6214906;28;20629;-64
2022/10/30 10:54:17;;;;;;;6.13;5.53;;;;;;;-144.22;100.00;60274.75;6218137;28;20318;-63
2022/10/30 10:57:28;;;;;;;7.70;6.90;;;;;;;-144.22;100.00;60274.75;6218858;28;20346;-63
2022/10/30 11:00:31;;;;;;;6.10;5.60;;;;;;;-144.22;100.00;60274.75;6218511;28;20236;-63
2022/10/30 11:04:02;;;;;;;6.60;6.00;;;;;;;-144.22;100.00;60274.75;6213499;28;20225;-64
2022/10/30 11:07:20;;;;;;;7.20;6.60;;;;;;;-144.22;100.00;60274.75;6217183;28;20239;-64
2022/10/30 11:10:24;;;;;;;6.83;6.20;;;;;;;-144.22;100.00;60274.75;6221404;28;20236;-63
2022/10/30 11:13:29;;;;;;;8.60;6.63;;;;;;;-144.22;100.00;60274.75;6220082;28;20227;-63
2022/10/30 11:16:44;;;;;;;7.60;6.90;;;;;;;-144.22;100.00;60274.75;6217956;28;20229;-64
2022/10/30 11:19:50;;;;;;;7.90;7.10;;;;;;;-144.22;100.00;60274.75;6216454;28;20234;-64
2022/10/30 11:22:52;;;;;;;6.90;6.20;;;;;;;-144.22;100.00;60274.75;6223126;28;20699;-64
2022/10/30 11:25:54;;;;;;;7.07;6.47;;;;;;;-144.22;100.00;60274.75;6206293;28;20292;-63
2022/10/30 11:29:02;;;;;;;7.87;7.10;;;;;;;-144.22;100.00;60274.75;6225652;28;20482;-63
2022/10/30 11:32:05;;;;;;;7.37;6.67;;;;;;;-144.22;100.00;60274.75;6218195;28;20722;-63
2022/10/30 11:35:07;;;;;;;6.90;6.30;;;;;;;-144.22;100.00;60274.75;6224609;28;20323;-63
2022/10/30 11:38:18;;;;;;;8.03;6.80;;;;;;;-144.22;100.00;60274.75;6237967;28;20720;-63
2022/10/30 11:41:21;;;;;;;7.93;7.13;;;;;;;-144.22;100.00;60274.75;6220127;28;20278;-64
2022/10/30 11:44:27;;;;;;;7.33;6.63;;;;;;;-144.22;100.00;60274.75;6233080;28;20242;-64
2022/10/30 11:47:37;;;;;;;6.10;5.57;;;;;;;-144.22;100.00;60274.75;6221907;28;20239;-64
2022/10/30 11:50:46;;;;;;;6.97;6.27;;;;;;;-144.22;100.00;60274.75;6225014;28;20227;-63
2022/10/30 11:53:49;;;;;;;6.90;6.30;;;;;;;-144.22;100.00;60274.75;6222612;28;20318;-63
2022/10/30 11:56:53;;;;;;;6.50;5.80;;;;;;;-144.22;100.00;60274.75;6225168;28;20224;-66
2022/10/30 11:59:55;;;;;;;6.93;6.33;;;;;;;-144.22;100.00;60274.75;6223111;28;20742;-63
2022/10/30 12:03:28;;;;;;;7.07;6.30;;;;;;;-144.22;100.00;60274.75;6219895;28;20359;-64
2022/10/30 12:06:30;;;;;;;6.77;6.13;;;;;;;-144.22;100.00;60274.75;6225455;28;20220;-63
2022/10/30 12:09:41;;;;;;;8.03;6.67;;;;;;;-144.22;100.00;60274.75;6221208;28;20584;-64
2022/10/30 12:12:43;;;;;;;6.40;5.80;;;;;;;-144.22;100.00;60274.75;6224838;28;20239;-64
2022/10/30 12:15:49;;;;;;;5.97;5.47;;;;;;;-144.22;100.00;60274.75;6223550;28;20257;-63
2022/10/30 12:19:08;;;;;;;6.37;5.77;;;;;;;-144.22;100.00;60274.75;6225915;28;20255;-64
2022/10/30 12:22:22;;;;;;;7.40;6.70;;;;;;;-144.22;100.00;60274.75;6214452;28;20246;-64
2022/10/30 12:25:29;;;;;;;6.97;6.27;;;;;;;-144.22;100.00;60274.75;6223947;28;20256;-63
2022/10/30 12:28:32;;;;;;;6.73;6.13;;;;;;;-144.22;100.00;60274.75;6227685;28;20235;-63
2022/10/30 12:31:40;;;;;;;7.63;6.50;;;;;;;-144.22;100.00;60274.75;6224089;28;20735;-63
2022/10/30 12:34:52;;;;;;;8.20;7.23;;;;;;;-144.22;100.00;60274.75;6223514;28;20229;-63
2022/10/30 12:37:58;;;;;;;7.33;6.63;;;;;;;-144.22;100.00;60274.75;6212578;28;20228;-63
2022/10/30 12:41:16;;;;;;;8.80;7.70;;;;;;;-144.22;100.00;60274.75;6230714;28;20471;-63
2022/10/30 12:44:28;;;;;;;7.47;6.77;;;;;;;-144.22;100.00;60274.75;6199050;28;20231;-63
2022/10/30 12:47:43;;;;;;;7.40;6.70;;;;;;;-144.22;100.00;60274.75;6224277;28;20314;-63
2022/10/30 12:51:12;;;;;;;8.17;7.33;;;;;;;-144.22;100.00;60274.75;6218759;28;20236;-65
2022/10/30 12:54:39;;;;;;;8.13;7.13;;;;;;;-144.22;100.00;60274.75;6221934;28;20319;-63
2022/10/30 12:58:07;;;;;;;7.33;6.63;;;;;;;-144.22;100.00;60274.75;6201402;28;20704;-64
2022/10/30 13:01:28;;;;;;;8.03;7.30;;;;;;;-144.22;100.00;60274.75;6211444;28;20734;-64
2022/10/30 13:04:38;;;;;;;9.43;8.43;;;;;;;-144.22;100.00;60274.75;6210238;28;20363;-63
2022/10/30 13:08:08;;;;;;;8.37;7.67;;;;;;;-144.22;100.00;60274.75;6227227;28;20310;-63
2022/10/30 13:11:10;;;;;;;9.90;8.90;;;;;;;-144.22;100.00;60274.75;6222227;28;20232;-63
2022/10/30 13:14:18;;;;;;;9.70;8.63;;;;;;;-144.22;100.00;60274.75;6221892;28;20228;-63
2022/10/30 13:17:20;;;;;;;9.83;8.93;;;;;;;-144.22;100.00;60274.75;6223688;28;20235;-63
2022/10/30 13:20:22;;;;;;;10.40;9.03;;;;;;;-144.22;100.00;60274.75;6228340;28;20790;-63
2022/10/30 13:23:40;;;;;;;10.27;9.27;;;;;;;-144.22;100.00;60274.75;6223662;28;20255;-64
2022/10/30 13:26:59;;;;;;;10.13;9.17;;;;;;;-144.22;100.00;60274.75;6221631;28;20330;-64
2022/10/30 13:30:16;;;;;;;9.63;8.73;;;;;;;-144.22;100.00;60274.75;6218569;28;20748;-65
2022/10/30 13:33:41;;;;;;;10.57;9.47;;;;;;;-144.22;100.00;60274.75;6220915;28;20696;-63
2022/10/30 13:36:53;;;;;;;10.57;9.53;;;;;;;-144.22;100.00;60274.75;6223894;28;20323;-63
2022/10/30 13:40:42;;;;;;;11.27;10.13;;;;;;;-144.22;100.00;60274.75;6221802;28;20233;-63
2022/10/30 13:43:53;;;;;;;10.83;9.83;;;;;;;-144.22;100.00;60274.75;6128551;29;20555;-64
2022/10/30 13:47:11;;;;;;;11.27;9.97;;;;;;;-144.22;100.00;60274.75;6109261;28;20628;-63
2022/10/30 13:50:25;;;;;;;12.13;10.83;;;;;;;-144.22;100.00;60274.75;6109477;29;20257;-63
2022/10/30 13:53:30;;;;;;;11.47;10.37;;;;;;;-144.22;100.00;60274.75;6125855;28;20238;-62
2022/10/30 13:56:34;;;;;;;12.77;11.57;;;;;;;-144.22;100.00;60274.75;6124060;28;20619;-63
2022/10/30 13:59:55;;;;;;;11.90;10.80;;;;;;;-144.22;100.00;60274.75;6123514;28;20231;-63
2022/10/30 14:03:18;;;;;;;12.37;11.07;;;;;;;-144.22;100.00;60274.75;6121637;28;20226;-66
2022/10/30 14:06:40;;;;;;;13.37;12.00;;;;;;;-144.22;100.00;60274.75;6124426;28;20230;-63
2022/10/30 14:09:52;;;;;;;12.93;11.63;;;;;;;-144.22;100.00;60274.75;6113798;29;20226;-64
2022/10/30 14:12:54;;;;;;;13.33;11.93;;;;;;;-144.22;100.00;60274.75;6132929;28;20696;-63
2022/10/30 14:16:05;;;;;;;12.93;11.53;;;;;;;-144.22;100.00;60274.75;6227429;28;20771;-63
2022/10/30 14:19:10;;;;;;;13.37;11.80;;;;;;;-144.22;100.00;60274.75;6228030;28;20240;-63
2022/10/30 14:22:38;;;;;;;14.20;12.80;;;;;;;-144.22;100.00;60274.75;6220397;28;20306;-63